Time;durP1;ratioP1;P1;durP2;ratioP2;P2;SDS_P1;SDS_P2;PMS_P1;PMS_P2;Temp;Humidity;BMP_temperature;BMP_pressure;BME280_temperature;BME280_humidity;BME280_pressure;Samples;Min_cycle;Max_cycle;Signal;HPM_P1;HPM_P2
2022/05/06 00:01:55;;;;;;;34.80;17.40;;;16.20;73.10;;;;;;5111379;28;20055;-72
2022/05/06 00:04:23;;;;;;;30.08;16.00;;;16.10;73.10;;;;;;5111163;28;20075;-72
2022/05/06 00:06:48;;;;;;;31.90;14.77;;;16.10;73.30;;;;;;5096482;28;20032;-73
2022/05/06 00:09:14;;;;;;;32.10;14.27;;;16.10;73.20;;;;;;5110817;28;20039;-72
2022/05/06 00:11:40;;;;;;;31.45;13.77;;;16.00;72.80;;;;;;5110057;28;20439;-73
2022/05/06 00:14:05;;;;;;;30.50;14.55;;;16.00;72.40;;;;;;5110606;28;20035;-72
2022/05/06 00:16:31;;;;;;;29.13;14.18;;;15.90;72.50;;;;;;5115074;28;20031;-72
2022/05/06 00:18:56;;;;;;;29.17;14.75;;;15.90;72.60;;;;;;5115085;28;20348;-72
2022/05/06 00:21:22;;;;;;;27.10;13.02;;;15.90;72.50;;;;;;5112901;28;20023;-72
2022/05/06 00:23:48;;;;;;;23.85;12.60;;;15.90;72.30;;;;;;5103118;28;20360;-72
2022/05/06 00:26:15;;;;;;;20.38;11.32;;;15.80;72.40;;;;;;5114847;28;20060;-72
2022/05/06 00:28:41;;;;;;;26.02;12.30;;;15.80;72.50;;;;;;5112813;28;20065;-72
2022/05/06 00:31:07;;;;;;;23.85;11.70;;;15.80;72.50;;;;;;5114434;28;20024;-72
2022/05/06 00:33:33;;;;;;;24.27;13.52;;;15.70;72.50;;;;;;5114802;28;20474;-73
2022/05/06 00:36:01;;;;;;;26.42;13.95;;;15.70;72.70;;;;;;5099619;28;20028;-72
2022/05/06 00:38:27;;;;;;;22.52;13.13;;;15.70;72.70;;;;;;5113469;28;20031;-72
2022/05/06 00:40:53;;;;;;;29.77;14.40;;;15.60;72.60;;;;;;5100208;28;20031;-72
2022/05/06 00:43:20;;;;;;;32.33;14.63;;;15.60;72.60;;;;;;5114858;28;20096;-72
2022/05/06 00:45:55;;;;;;;30.45;16.35;;;15.60;72.90;;;;;;5114363;27;20111;-72
2022/05/06 00:48:30;;;;;;;33.83;15.70;;;15.50;73.30;;;;;;5113747;28;20060;-72
2022/05/06 00:51:01;;;;;;;23.65;12.48;;;15.50;73.40;;;;;;5113197;28;20028;-73
2022/05/06 00:53:35;;;;;;;23.73;12.90;;;15.50;73.90;;;;;;5114059;28;20036;-72
2022/05/06 00:56:02;;;;;;;20.27;11.77;;;15.40;74.10;;;;;;5112259;28;20420;-72
2022/05/06 00:58:31;;;;;;;17.98;10.68;;;15.40;74.40;;;;;;5101900;28;20051;-72
2022/05/06 01:00:57;;;;;;;20.05;11.43;;;15.30;74.60;;;;;;5097242;28;20558;-72
2022/05/06 01:03:22;;;;;;;26.10;13.52;;;15.30;74.80;;;;;;5113407;28;20118;-73
2022/05/06 01:05:54;;;;;;;21.00;12.35;;;15.30;74.70;;;;;;5113988;28;20110;-72
2022/05/06 01:08:20;;;;;;;25.35;13.40;;;15.30;74.90;;;;;;5099500;28;20036;-72
2022/05/06 01:10:47;;;;;;;25.65;12.93;;;15.20;74.90;;;;;;5106289;28;20024;-72
2022/05/06 01:13:13;;;;;;;23.73;13.55;;;15.30;75.00;;;;;;5105854;28;20036;-73
2022/05/06 01:15:39;;;;;;;30.85;14.95;;;15.20;75.00;;;;;;5112899;28;20493;-73
2022/05/06 01:18:31;;;;;;;24.67;13.90;;;15.20;75.10;;;;;;5109167;28;20118;-73
2022/05/06 01:21:00;;;;;;;27.23;14.32;;;15.20;74.90;;;;;;5105888;28;20530;-73
2022/05/06 01:23:29;;;;;;;29.77;15.07;;;15.10;74.80;;;;;;5112708;28;20058;-73
2022/05/06 01:25:55;;;;;;;30.50;14.10;;;15.10;74.80;;;;;;5104942;28;20048;-73
2022/05/06 01:28:25;;;;;;;29.15;14.13;;;15.20;75.00;;;;;;5112916;28;20142;-72
2022/05/06 01:30:58;;;;;;;31.42;14.25;;;15.10;75.20;;;;;;5111648;28;20043;-73
2022/05/06 01:33:26;;;;;;;29.52;13.68;;;15.10;75.20;;;;;;5104221;28;20034;-72
2022/05/06 01:35:55;;;;;;;30.02;14.32;;;15.00;75.20;;;;;;5111882;28;20020;-72
2022/05/06 01:38:44;;;;;;;31.73;15.43;;;15.00;75.20;;;;;;5111491;28;20035;-72
2022/05/06 01:41:25;;;;;;;33.75;15.52;;;15.00;75.40;;;;;;5101374;28;20383;-72
2022/05/06 01:44:04;;;;;;;30.05;15.23;;;15.00;75.40;;;;;;5100767;28;20069;-73
2022/05/06 01:46:33;;;;;;;29.90;15.20;;;15.00;75.40;;;;;;5105597;28;20457;-72
2022/05/06 01:49:03;;;;;;;26.25;13.93;;;14.90;75.60;;;;;;5108071;28;20035;-73
2022/05/06 01:51:32;;;;;;;25.60;13.30;;;14.90;75.50;;;;;;5110630;28;20024;-72
2022/05/06 01:54:00;;;;;;;21.63;12.57;;;14.90;75.30;;;;;;5112033;28;20020;-72
2022/05/06 01:56:26;;;;;;;23.17;13.25;;;14.80;75.10;;;;;;5109329;28;20031;-73
2022/05/06 01:58:54;;;;;;;29.30;14.75;;;14.80;75.00;;;;;;5099303;28;20123;-72
2022/05/06 02:01:20;;;;;;;28.02;15.10;;;14.80;75.20;;;;;;5097923;28;20061;-72
2022/05/06 02:06:33;;;;;;;27.80;14.85;;;14.80;75.40;;;;;;5109427;28;20027;-72
2022/05/06 02:09:28;;;;;;;28.67;14.70;;;14.70;75.60;;;;;;5096620;28;20432;-72
2022/05/06 02:11:58;;;;;;;28.40;13.60;;;14.70;75.60;;;;;;5111394;28;20031;-72
2022/05/06 02:14:35;;;;;;;23.67;13.10;;;14.70;75.40;;;;;;5108057;28;20447;-73
2022/05/06 02:17:20;;;;;;;19.30;11.02;;;14.70;75.50;;;;;;5092464;28;20100;-72
2022/05/06 02:20:24;;;;;;;16.90;9.98;;;14.70;75.50;;;;;;5100152;28;20074;-72
2022/05/06 02:23:08;;;;;;;24.60;10.55;;;14.60;75.30;;;;;;5107517;28;20105;-72
2022/05/06 02:25:53;;;;;;;21.05;11.10;;;14.60;75.40;;;;;;5112568;28;20441;-73
2022/05/06 02:28:27;;;;;;;22.70;11.15;;;14.50;75.20;;;;;;5096569;28;20075;-73
2022/05/06 02:33:47;;;;;;;19.77;11.10;;;14.50;75.00;;;;;;5110236;28;20035;-73
2022/05/06 02:36:20;;;;;;;16.02;8.30;;;14.40;75.20;;;;;;5110817;28;20145;-73
2022/05/06 02:38:46;;;;;;;19.27;9.88;;;14.40;75.50;;;;;;5112010;28;20126;-73
2022/05/06 02:41:15;;;;;;;19.15;9.35;;;14.30;75.80;;;;;;5107752;28;20378;-72
2022/05/06 02:43:50;;;;;;;15.32;8.65;;;14.30;75.90;;;;;;5112366;28;20032;-73
2022/05/06 02:46:18;;;;;;;19.92;10.15;;;14.20;75.90;;;;;;5110478;28;20046;-73
2022/05/06 02:48:44;;;;;;;21.65;10.02;;;14.20;75.90;;;;;;5098798;28;20181;-73
2022/05/06 02:51:13;;;;;;;18.90;9.02;;;14.10;75.90;;;;;;5095270;28;20032;-72
2022/05/06 02:53:40;;;;;;;23.25;10.73;;;14.10;75.80;;;;;;5110834;28;20530;-73
2022/05/06 02:56:06;;;;;;;19.42;9.95;;;14.10;75.90;;;;;;5109646;28;20041;-73
2022/05/06 02:58:42;;;;;;;21.60;9.43;;;14.10;76.10;;;;;;5109943;28;20031;-73
2022/05/06 03:01:07;;;;;;;24.35;7.70;;;14.00;76.20;;;;;;5097764;28;20040;-72
2022/05/06 03:03:36;;;;;;;17.63;9.30;;;14.00;76.40;;;;;;5109752;28;20027;-72
2022/05/06 03:06:09;;;;;;;22.17;9.48;;;14.00;76.50;;;;;;5110543;28;20076;-73
2022/05/06 03:08:36;;;;;;;15.85;8.50;;;13.90;76.30;;;;;;5108629;28;20042;-73
2022/05/06 03:11:02;;;;;;;15.57;7.90;;;13.90;76.60;;;;;;5110482;28;20106;-73
2022/05/06 03:13:31;;;;;;;25.70;9.68;;;13.90;76.70;;;;;;5097323;28;20023;-73
2022/05/06 03:16:01;;;;;;;18.48;9.38;;;13.80;76.70;;;;;;5109690;28;20071;-73
2022/05/06 03:18:27;;;;;;;19.77;10.25;;;13.80;76.90;;;;;;5097658;28;20078;-73
2022/05/06 03:20:53;;;;;;;29.60;10.70;;;13.80;77.00;;;;;;5111714;28;20842;-74
2022/05/06 03:23:19;;;;;;;24.30;10.93;;;13.70;77.10;;;;;;5103959;28;20119;-73
2022/05/06 03:25:44;;;;;;;26.60;12.27;;;13.70;77.30;;;;;;5103491;28;20028;-73
2022/05/06 03:28:10;;;;;;;26.55;11.57;;;13.70;77.70;;;;;;5111419;28;20418;-74
2022/05/06 03:30:39;;;;;;;17.95;9.32;;;13.70;77.90;;;;;;5105978;28;20031;-72
2022/05/06 03:33:21;;;;;;;25.60;12.20;;;13.70;78.00;;;;;;5095469;28;20035;-72
2022/05/06 03:35:48;;;;;;;23.63;11.50;;;13.70;78.10;;;;;;5106964;28;20107;-72
2022/05/06 03:38:16;;;;;;;27.10;11.95;;;13.60;78.30;;;;;;5109415;28;20040;-74
2022/05/06 03:40:45;;;;;;;24.55;13.00;;;13.60;79.10;;;;;;5109679;28;20085;-72
2022/05/06 03:43:11;;;;;;;25.42;12.88;;;13.60;78.70;;;;;;5111235;28;20028;-74
2022/05/06 03:45:39;;;;;;;26.05;12.63;;;13.60;78.90;;;;;;5105904;28;20024;-73
2022/05/06 03:48:06;;;;;;;19.60;8.82;;;13.60;79.00;;;;;;5091005;28;20498;-72
2022/05/06 03:53:25;;;;;;;20.85;9.77;;;13.60;78.90;;;;;;5112364;27;20491;-73
2022/05/06 03:55:53;;;;;;;24.73;11.90;;;13.60;78.90;;;;;;5113260;27;20028;-72
2022/05/06 03:58:22;;;;;;;23.98;12.80;;;13.60;79.10;;;;;;5091767;28;20888;-73
2022/05/06 04:00:49;;;;;;;26.05;12.82;;;13.60;79.40;;;;;;5112146;27;20583;-73
2022/05/06 04:03:15;;;;;;;24.17;12.05;;;13.60;79.70;;;;;;5091854;28;20123;-72
2022/05/06 04:05:41;;;;;;;23.52;12.32;;;13.60;79.90;;;;;;5111663;27;20464;-72
2022/05/06 04:08:08;;;;;;;24.75;12.38;;;13.60;80.20;;;;;;5100562;28;20043;-73
2022/05/06 04:10:33;;;;;;;25.17;12.50;;;13.60;80.40;;;;;;5092496;28;20012;-73
2022/05/06 04:12:59;;;;;;;30.38;13.88;;;13.60;80.50;;;;;;5095742;28;20027;-72
2022/05/06 04:15:26;;;;;;;29.83;13.73;;;13.60;80.50;;;;;;5092029;28;20469;-73
2022/05/06 04:17:53;;;;;;;25.70;13.23;;;13.60;80.30;;;;;;5092441;28;20085;-72
2022/05/06 04:25:53;;;;;;;25.60;12.07;;;13.50;80.80;;;;;;5094312;28;20588;-73
2022/05/06 04:28:20;;;;;;;25.33;11.40;;;13.50;80.30;;;;;;5098379;28;20032;-72
2022/05/06 04:30:53;;;;;;;19.20;10.25;;;13.50;80.50;;;;;;5111986;27;20028;-73
2022/05/06 04:33:20;;;;;;;21.85;10.95;;;13.40;80.40;;;;;;5098307;27;20039;-73
2022/05/06 04:35:49;;;;;;;21.25;10.48;;;13.40;80.60;;;;;;5108229;28;20035;-72
2022/05/06 04:38:17;;;;;;;19.27;10.18;;;13.40;80.60;;;;;;5113507;28;20122;-72
2022/05/06 04:40:43;;;;;;;20.08;10.23;;;13.40;80.90;;;;;;5106264;28;20798;-72
2022/05/06 04:43:13;;;;;;;17.15;9.75;;;13.40;80.90;;;;;;5113266;28;20105;-72
2022/05/06 04:45:43;;;;;;;22.77;9.00;;;13.40;81.00;;;;;;5100654;28;20024;-73
2022/05/06 04:48:11;;;;;;;17.83;9.57;;;13.40;81.10;;;;;;5113274;28;20075;-72
2022/05/06 04:50:40;;;;;;;17.25;9.27;;;13.40;81.20;;;;;;5112817;28;20035;-73
2022/05/06 04:53:09;;;;;;;16.17;9.10;;;13.40;81.90;;;;;;5112978;28;20020;-72
2022/05/06 04:55:40;;;;;;;15.82;9.20;;;13.30;81.30;;;;;;5111173;28;20027;-72
2022/05/06 04:58:09;;;;;;;16.50;8.90;;;13.40;81.50;;;;;;5113149;28;20055;-72
2022/05/06 05:00:35;;;;;;;14.70;8.68;;;13.30;81.50;;;;;;5109362;28;20047;-72
2022/05/06 05:03:02;;;;;;;15.82;8.15;;;13.30;81.60;;;;;;5091995;28;20527;-72
2022/05/06 05:05:29;;;;;;;14.38;8.63;;;13.30;81.50;;;;;;5105714;28;20020;-72
2022/05/06 05:07:55;;;;;;;15.52;8.40;;;13.30;81.60;;;;;;5102722;28;20039;-73
2022/05/06 05:10:22;;;;;;;13.77;7.88;;;13.30;81.60;;;;;;5110106;28;20029;-72
2022/05/06 05:12:48;;;;;;;13.88;7.82;;;13.40;81.60;;;;;;5103909;28;20183;-72
2022/05/06 05:15:18;;;;;;;13.30;6.97;;;13.30;81.50;;;;;;5107678;28;20809;-72
2022/05/06 05:17:45;;;;;;;13.98;8.30;;;13.30;81.30;;;;;;5093028;28;20024;-72
2022/05/06 05:20:12;;;;;;;19.35;9.68;;;13.20;81.30;;;;;;5096292;28;20494;-72
2022/05/06 05:22:40;;;;;;;17.45;8.75;;;13.20;81.40;;;;;;5110683;28;20059;-72
2022/05/06 05:25:10;;;;;;;17.50;8.35;;;13.20;81.50;;;;;;5110689;28;20114;-72
2022/05/06 05:27:37;;;;;;;18.02;9.32;;;13.20;81.40;;;;;;5099243;28;20032;-72
2022/05/06 05:30:06;;;;;;;21.45;8.60;;;13.20;81.50;;;;;;5111274;28;20410;-72
2022/05/06 05:32:33;;;;;;;24.58;10.38;;;13.20;81.60;;;;;;5098529;28;20046;-72
2022/05/06 05:35:00;;;;;;;25.08;10.00;;;13.10;81.90;;;;;;5112317;28;20479;-72
2022/05/06 05:37:30;;;;;;;14.07;7.72;;;13.10;82.00;;;;;;5109483;28;20028;-72
2022/05/06 05:39:59;;;;;;;19.15;10.02;;;13.10;82.10;;;;;;5112144;28;20406;-72
2022/05/06 05:42:28;;;;;;;21.33;11.75;;;13.10;82.30;;;;;;5100115;28;20503;-72
2022/05/06 05:50:29;;;;;;;18.90;7.80;;;13.10;82.80;;;;;;5107486;28;20112;-72
2022/05/06 05:52:58;;;;;;;2.85;2.47;;;13.10;82.70;;;;;;5102214;28;20032;-72
2022/05/06 05:55:24;;;;;;;17.90;8.38;;;13.10;82.70;;;;;;5111653;28;20080;-73
2022/05/06 05:57:50;;;;;;;18.50;8.90;;;13.00;83.30;;;;;;5111131;28;20038;-72
2022/05/06 06:00:17;;;;;;;19.35;9.20;;;13.00;83.60;;;;;;5093907;28;20048;-72
2022/05/06 06:02:47;;;;;;;37.40;10.95;;;13.00;84.00;;;;;;5102728;28;20043;-72
2022/05/06 06:05:14;;;;;;;25.35;12.98;;;13.00;84.30;;;;;;5110832;28;20020;-72
2022/05/06 06:07:42;;;;;;;31.25;12.52;;;13.10;84.80;;;;;;5111681;28;20037;-72
2022/05/06 06:10:10;;;;;;;23.13;12.10;;;13.10;84.90;;;;;;5098649;28;20031;-72
2022/05/06 06:12:37;;;;;;;27.55;11.60;;;13.10;85.00;;;;;;5097123;28;20119;-73
2022/05/06 06:15:03;;;;;;;23.85;12.02;;;13.10;84.90;;;;;;5090283;28;20120;-72
2022/05/06 06:17:28;;;;;;;28.08;12.73;;;13.20;85.10;;;;;;5094565;28;20020;-72
2022/05/06 06:19:56;;;;;;;39.95;11.73;;;13.10;85.30;;;;;;5092574;28;20089;-73
2022/05/06 06:22:22;;;;;;;13.32;6.07;;;13.20;85.50;;;;;;5089907;28;20380;-72
2022/05/06 06:24:53;;;;;;;14.23;7.38;;;13.20;85.40;;;;;;5092601;28;20429;-72
2022/05/06 06:27:25;;;;;;;25.08;10.18;;;13.20;85.60;;;;;;5109293;27;20073;-72
2022/05/06 06:29:51;;;;;;;26.63;10.57;;;13.20;85.90;;;;;;5089803;28;20032;-72
2022/05/06 06:32:18;;;;;;;23.38;9.35;;;13.20;86.10;;;;;;5102318;28;20028;-72
2022/05/06 06:34:44;;;;;;;20.65;10.52;;;13.20;86.20;;;;;;5108592;28;20122;-71
2022/05/06 06:37:13;;;;;;;6.60;4.15;;;13.20;86.50;;;;;;5102644;28;20409;-73
2022/05/06 06:39:44;;;;;;;19.15;9.73;;;13.20;86.60;;;;;;5106392;28;20026;-72
2022/05/06 06:42:10;;;;;;;25.75;13.70;;;13.20;87.20;;;;;;5105813;28;20031;-72
2022/05/06 06:44:52;;;;;;;12.35;6.20;;;13.20;87.80;;;;;;5102911;28;20085;-73
2022/05/06 06:47:31;;;;;;;15.77;7.45;;;13.20;87.60;;;;;;5107468;28;20043;-72
2022/05/06 06:50:20;;;;;;;9.45;4.60;;;13.30;88.00;;;;;;5103004;28;20032;-73
2022/05/06 06:53:04;;;;;;;17.17;6.35;;;13.30;88.40;;;;;;5100407;28;20104;-72
2022/05/06 06:55:29;;;;;;;21.27;8.10;;;13.30;88.60;;;;;;5090737;28;20720;-72
2022/05/06 06:57:55;;;;;;;14.43;7.68;;;13.30;89.20;;;;;;5100298;28;20127;-73
2022/05/06 07:00:21;;;;;;;12.50;5.95;;;13.30;89.80;;;;;;5097049;28;20130;-74
2022/05/06 07:02:47;;;;;;;10.95;5.88;;;13.30;90.00;;;;;;5100579;28;20035;-72
2022/05/06 07:05:12;;;;;;;13.63;5.32;;;13.30;90.10;;;;;;5092148;28;20111;-73
2022/05/06 07:13:23;;;;;;;30.52;14.75;;;13.40;90.20;;;;;;5065557;28;20511;-71
2022/05/06 07:15:49;;;;;;;17.35;7.20;;;13.50;90.40;;;;;;5084994;28;20059;-73
2022/05/06 07:18:14;;;;;;;17.33;6.85;;;13.50;90.40;;;;;;5102445;28;20024;-72
2022/05/06 07:20:42;;;;;;;34.45;15.38;;;13.50;90.50;;;;;;5107058;28;20508;-73
2022/05/06 07:23:08;;;;;;;14.65;7.53;;;13.50;90.70;;;;;;5102761;28;20612;-72
2022/05/06 07:25:34;;;;;;;25.88;11.80;;;13.60;90.50;;;;;;5105840;28;20042;-73
2022/05/06 07:28:00;;;;;;;15.63;6.75;;;13.60;90.70;;;;;;5100247;28;20036;-72
2022/05/06 07:30:26;;;;;;;29.00;14.10;;;13.60;90.70;;;;;;5090486;28;20039;-72
2022/05/06 07:32:51;;;;;;;22.38;10.82;;;13.70;90.90;;;;;;5097995;28;20107;-72
2022/05/06 07:35:17;;;;;;;11.68;6.10;;;13.70;90.90;;;;;;5098781;28;20777;-75
2022/05/06 07:37:43;;;;;;;17.38;7.15;;;13.80;90.80;;;;;;5108822;28;20024;-75
2022/05/06 07:40:10;;;;;;;9.25;4.90;;;13.80;90.90;;;;;;5102531;28;20067;-75
2022/05/06 07:42:41;;;;;;;12.20;5.45;;;13.80;91.10;;;;;;5100914;28;20073;-75
2022/05/06 07:45:08;;;;;;;13.25;7.00;;;13.80;91.20;;;;;;5095670;28;20042;-74
2022/05/06 07:47:34;;;;;;;17.90;9.02;;;13.80;91.30;;;;;;5092261;28;20033;-75
2022/05/06 07:49:59;;;;;;;6.40;3.20;;;13.90;91.40;;;;;;5098250;28;20100;-76
2022/05/06 07:52:25;;;;;;;5.07;2.95;;;13.90;91.40;;;;;;5093247;28;20024;-75
2022/05/06 07:54:51;;;;;;;18.08;11.02;;;13.90;91.50;;;;;;5094578;28;20459;-79
2022/05/06 07:57:17;;;;;;;16.60;10.27;;;13.90;91.60;;;;;;5087338;28;20028;-75
2022/05/06 07:59:43;;;;;;;11.50;7.15;;;14.00;91.70;;;;;;5090215;28;20174;-77
2022/05/06 08:04:52;;;;;;;18.63;8.93;;;14.10;91.40;;;;;;5095712;28;20110;-71
2022/05/06 08:07:18;;;;;;;5.97;3.50;;;14.10;91.50;;;;;;5096714;28;20122;-70
2022/05/06 08:09:44;;;;;;;10.15;5.95;;;14.20;91.50;;;;;;5110935;28;20048;-71
2022/05/06 08:12:10;;;;;;;4.40;2.95;;;14.20;91.60;;;;;;5102978;28;20035;-71
2022/05/06 08:14:37;;;;;;;12.60;7.43;;;14.20;91.60;;;;;;5088598;28;20032;-70
2022/05/06 08:17:03;;;;;;;11.55;2.80;;;14.20;91.70;;;;;;5089782;28;20024;-70
2022/05/06 08:19:29;;;;;;;2.55;1.77;;;14.30;91.60;;;;;;5087571;28;20028;-71
2022/05/06 08:21:55;;;;;;;4.70;2.58;;;14.30;91.50;;;;;;5088246;28;20024;-71
2022/05/06 08:24:22;;;;;;;10.60;5.75;;;14.30;91.50;;;;;;5088821;28;20088;-70
2022/05/06 08:26:48;;;;;;;2.85;2.15;;;14.40;91.60;;;;;;5091682;28;20040;-70
2022/05/06 08:29:14;;;;;;;5.55;2.97;;;14.50;91.50;;;;;;5087885;28;20050;-70
2022/05/06 08:31:40;;;;;;;14.98;4.55;;;14.50;91.80;;;;;;5091279;28;20066;-71
2022/05/06 08:34:10;;;;;;;9.90;6.20;;;14.60;91.50;;;;;;5093142;28;20060;-73
2022/05/06 08:36:45;;;;;;;3.10;2.08;;;14.60;91.50;;;;;;5091551;28;20032;-71
2022/05/06 08:39:14;;;;;;;11.05;6.88;;;14.70;91.30;;;;;;5091795;28;20039;-70
2022/05/06 08:41:41;;;;;;;10.45;5.65;;;14.80;91.50;;;;;;5097357;28;20387;-71
2022/05/06 08:52:40;;;;;;;10.48;6.18;;;15.00;91.30;;;;;;5094958;28;20114;-76
2022/05/06 08:55:06;;;;;;;2.08;1.52;;;15.00;91.40;;;;;;5092771;28;20028;-67
2022/05/06 08:57:32;;;;;;;8.88;5.88;;;15.10;91.20;;;;;;5093302;28;20024;-77
2022/05/06 08:59:58;;;;;;;5.88;3.67;;;15.10;91.40;;;;;;5096828;28;20116;-77
2022/05/06 09:02:24;;;;;;;7.88;4.60;;;15.10;91.30;;;;;;5113668;28;20024;-77
2022/05/06 09:04:50;;;;;;;8.00;1.70;;;15.20;91.30;;;;;;5099980;28;20036;-76
2022/05/06 09:07:21;;;;;;;8.30;5.00;;;15.20;91.20;;;;;;5099543;28;20039;-77
2022/05/06 09:10:10;;;;;;;3.83;2.70;;;15.30;91.30;;;;;;5098936;28;20134;-79
2022/05/06 09:12:41;;;;;;;10.13;4.55;;;15.30;91.20;;;;;;5094942;28;20044;-77
2022/05/06 09:17:52;;;;;;;2.15;1.60;;;15.50;91.20;;;;;;5092257;28;20726;-77
2022/05/06 09:20:19;;;;;;;3.70;2.00;;;15.50;91.00;;;;;;5091911;28;20032;-77
2022/05/06 09:22:47;;;;;;;2.85;2.00;;;15.50;91.00;;;;;;5096076;28;20030;-77
2022/05/06 09:25:38;;;;;;;6.57;4.35;;;15.60;91.00;;;;;;5092484;28;20040;-78
2022/05/06 09:28:06;;;;;;;4.95;1.55;;;15.60;91.20;;;;;;5093619;28;20046;-79
2022/05/06 09:30:33;;;;;;;4.63;2.55;;;15.60;91.30;;;;;;5099318;28;20028;-78
2022/05/06 09:32:59;;;;;;;3.75;2.42;;;15.70;91.00;;;;;;5091679;28;20024;-78
2022/05/06 09:35:30;;;;;;;3.88;2.90;;;15.70;91.10;;;;;;5094748;28;20652;-80
2022/05/06 09:37:56;;;;;;;6.82;4.32;;;15.70;91.10;;;;;;5094327;28;20032;-78
2022/05/06 09:40:30;;;;;;;5.28;3.97;;;15.80;91.10;;;;;;5093642;28;20430;-72
2022/05/06 09:42:55;;;;;;;5.43;3.55;;;15.90;91.10;;;;;;5095130;28;20122;-78
2022/05/06 09:45:39;;;;;;;5.00;3.35;;;15.90;91.10;;;;;;5093721;28;20102;-70
2022/05/06 09:48:08;;;;;;;6.22;3.38;;;16.10;91.00;;;;;;5091226;28;20063;-72
2022/05/06 09:50:39;;;;;;;4.03;1.90;;;16.10;91.00;;;;;;5108797;28;20032;-72
2022/05/06 09:53:08;;;;;;;6.47;3.65;;;16.10;90.90;;;;;;5102849;28;20035;-71
2022/05/06 09:55:38;;;;;;;8.18;4.93;;;16.20;90.90;;;;;;5109517;28;20049;-70
2022/05/06 09:58:04;;;;;;;8.55;4.72;;;16.30;91.10;;;;;;5113133;28;20028;-73
2022/05/06 10:00:32;;;;;;;3.90;2.17;;;16.30;90.90;;;;;;5112557;28;20051;-72
2022/05/06 10:02:58;;;;;;;3.83;2.42;;;16.30;90.80;;;;;;5111973;28;20038;-70
2022/05/06 10:05:25;;;;;;;6.47;4.57;;;16.40;90.90;;;;;;5105746;28;20032;-71
2022/05/06 10:07:58;;;;;;;10.25;5.13;;;16.40;90.80;;;;;;5096635;28;20058;-73
2022/05/06 10:10:28;;;;;;;3.80;2.17;;;16.50;90.90;;;;;;5096212;28;20693;-72
2022/05/06 10:13:06;;;;;;;8.27;4.85;;;16.60;90.80;;;;;;5092603;28;20034;-72
2022/05/06 10:15:33;;;;;;;6.75;2.67;;;16.60;90.70;;;;;;5092327;28;20039;-72
2022/05/06 10:18:02;;;;;;;2.75;2.25;;;16.70;90.70;;;;;;5089287;28;20035;-72
2022/05/06 10:20:41;;;;;;;1.95;1.35;;;16.70;90.70;;;;;;5105727;28;20066;-72
2022/05/06 10:23:09;;;;;;;8.05;4.82;;;16.80;90.70;;;;;;5098737;28;20155;-76
2022/05/06 10:25:41;;;;;;;7.22;3.38;;;16.80;90.60;;;;;;5112053;28;20122;-73
2022/05/06 10:34:12;;;;;;;3.63;2.47;;;17.00;90.40;;;;;;5096742;28;20832;-71
2022/05/06 10:36:53;;;;;;;9.30;3.63;;;17.00;90.40;;;;;;5091982;28;20044;-72
2022/05/06 10:39:35;;;;;;;4.90;2.92;;;17.10;90.40;;;;;;5092197;28;20031;-72
2022/05/06 10:42:17;;;;;;;8.68;4.72;;;17.10;90.40;;;;;;5091272;28;20141;-72
2022/05/06 10:44:50;;;;;;;4.00;2.15;;;17.20;90.40;;;;;;5091151;28;20099;-72
2022/05/06 10:47:15;;;;;;;7.10;4.82;;;17.20;90.40;;;;;;5098597;28;20135;-72
2022/05/06 10:49:43;;;;;;;3.88;2.67;;;17.30;90.20;;;;;;5099524;28;20135;-71
2022/05/06 10:52:19;;;;;;;4.75;3.00;;;17.30;90.30;;;;;;5090396;28;20020;-72
2022/05/06 10:54:50;;;;;;;8.43;5.65;;;17.30;90.20;;;;;;5094972;28;20066;-70
2022/05/06 10:57:23;;;;;;;5.85;3.33;;;17.40;90.00;;;;;;5095675;28;20450;-70
2022/05/06 10:59:51;;;;;;;6.15;2.70;;;17.50;90.10;;;;;;5089942;28;20045;-70
2022/05/06 11:02:23;;;;;;;4.25;2.92;;;17.50;89.90;;;;;;5096064;28;20028;-70
2022/05/06 11:04:54;;;;;;;7.10;3.95;;;17.60;89.60;;;;;;5092262;28;20106;-71
2022/05/06 11:07:20;;;;;;;2.63;1.38;;;17.70;89.00;;;;;;5089965;28;20048;-69
2022/05/06 11:09:46;;;;;;;2.90;1.85;;;17.70;89.30;;;;;;5092686;28;20044;-72
2022/05/06 11:12:44;;;;;;;3.08;2.22;;;17.80;89.40;;;;;;5088511;28;20036;-72
2022/05/06 11:15:18;;;;;;;4.95;3.20;;;17.90;88.70;;;;;;5089589;28;20107;-73
2022/05/06 11:17:46;;;;;;;2.63;1.90;;;18.00;87.90;;;;;;5094104;28;20032;-71
2022/05/06 11:20:23;;;;;;;4.32;2.75;;;18.00;88.20;;;;;;5090477;28;20019;-71
2022/05/06 11:23:03;;;;;;;2.58;1.55;;;18.00;87.50;;;;;;5093883;28;20024;-72
2022/05/06 11:25:37;;;;;;;7.05;3.22;;;18.10;87.80;;;;;;5090366;28;20028;-72
2022/05/06 11:28:09;;;;;;;3.40;2.58;;;18.10;87.50;;;;;;5088430;28;20845;-71
2022/05/06 11:30:37;;;;;;;2.70;1.52;;;18.20;86.80;;;;;;5091678;28;20032;-75
2022/05/06 11:33:03;;;;;;;2.38;1.15;;;18.30;87.30;;;;;;5092522;28;20038;-72
2022/05/06 11:35:48;;;;;;;3.53;1.77;;;18.30;87.20;;;;;;5089042;28;20054;-72
2022/05/06 11:38:14;;;;;;;3.55;2.33;;;18.40;86.50;;;;;;5095546;28;20371;-71
2022/05/06 11:40:41;;;;;;;4.13;3.05;;;18.40;85.40;;;;;;5090422;28;20036;-71
2022/05/06 11:43:16;;;;;;;4.47;2.80;;;18.50;84.30;;;;;;5089771;28;20475;-72
2022/05/06 11:48:30;;;;;;;7.47;3.00;;;18.60;85.90;;;;;;5092783;28;20040;-71
2022/05/06 11:50:59;;;;;;;6.95;3.40;;;18.70;85.30;;;;;;5090753;28;20073;-72
2022/05/06 11:53:27;;;;;;;2.20;1.70;;;18.70;85.00;;;;;;5096417;28;20475;-71
2022/05/06 11:55:55;;;;;;;4.60;2.65;;;18.80;85.90;;;;;;5100152;28;20032;-71
2022/05/06 11:58:22;;;;;;;2.05;1.23;;;18.90;85.30;;;;;;5104358;28;20035;-71
2022/05/06 12:00:50;;;;;;;5.63;3.05;;;18.90;85.70;;;;;;5107178;28;20059;-71
2022/05/06 12:03:18;;;;;;;4.65;3.20;;;19.00;84.80;;;;;;5104818;28;20036;-71
2022/05/06 12:06:21;;;;;;;9.73;3.85;;;19.00;84.90;;;;;;5091778;28;20038;-71
2022/05/06 12:08:46;;;;;;;5.15;3.35;;;19.20;83.90;;;;;;5103379;28;20122;-71
2022/05/06 12:11:12;;;;;;;6.05;3.28;;;19.30;84.00;;;;;;5105629;28;20444;-71
2022/05/06 12:13:40;;;;;;;5.55;3.60;;;19.30;83.30;;;;;;5101151;28;20046;-71
2022/05/06 12:16:12;;;;;;;5.40;3.40;;;19.40;82.20;;;;;;5114954;28;20479;-71
2022/05/06 12:18:51;;;;;;;4.22;3.10;;;19.60;82.40;;;;;;5114313;27;20056;-68
2022/05/06 12:21:18;;;;;;;6.82;3.42;;;19.60;83.20;;;;;;5115055;28;20047;-71
2022/05/06 12:23:53;;;;;;;4.95;2.80;;;19.70;84.20;;;;;;5115263;28;20035;-69
2022/05/06 12:26:37;;;;;;;5.47;3.55;;;19.70;84.70;;;;;;5112978;28;20112;-71
2022/05/06 12:29:17;;;;;;;6.55;4.03;;;19.80;83.80;;;;;;5100325;28;20032;-71
2022/05/06 12:31:43;;;;;;;4.50;3.38;;;19.90;82.60;;;;;;5098940;28;20063;-71
2022/05/06 12:34:09;;;;;;;2.85;1.98;;;19.90;84.10;;;;;;5109647;28;20062;-72
2022/05/06 12:36:38;;;;;;;3.15;1.70;;;20.00;84.90;;;;;;5109024;28;20055;-72
2022/05/06 12:39:37;;;;;;;8.35;3.25;;;20.00;85.10;;;;;;5102639;28;20027;-69
2022/05/06 12:42:20;;;;;;;6.30;2.47;;;20.00;84.00;;;;;;5094198;28;20392;-71
2022/05/06 12:44:47;;;;;;;5.32;1.95;;;20.10;84.90;;;;;;5101696;28;20076;-71
2022/05/06 12:47:13;;;;;;;5.45;3.60;;;20.20;85.10;;;;;;5106216;28;20071;-72
2022/05/06 12:49:39;;;;;;;4.72;3.22;;;20.20;83.40;;;;;;5104636;28;20075;-72
2022/05/06 12:52:08;;;;;;;4.82;3.20;;;20.20;82.70;;;;;;5099866;28;20107;-72
2022/05/06 12:54:34;;;;;;;5.70;3.30;;;20.30;81.00;;;;;;5102353;28;20041;-72
2022/05/06 12:57:01;;;;;;;5.25;3.20;;;20.40;80.40;;;;;;5114505;28;20065;-72
2022/05/06 12:59:27;;;;;;;4.05;2.35;;;20.50;81.30;;;;;;5105385;28;20066;-71
2022/05/06 13:01:53;;;;;;;4.35;3.17;;;20.60;83.50;;;;;;5096466;28;20063;-73
2022/05/06 13:04:19;;;;;;;7.20;3.53;;;20.70;83.10;;;;;;5104083;28;20063;-72
2022/05/06 13:06:45;;;;;;;6.35;2.38;;;20.70;82.60;;;;;;5097614;28;20511;-73
2022/05/06 13:09:12;;;;;;;6.75;3.25;;;20.80;83.10;;;;;;5112054;28;20075;-72
2022/05/06 13:11:37;;;;;;;6.10;3.25;;;20.90;81.80;;;;;;5102550;28;20473;-72
2022/05/06 13:14:03;;;;;;;5.45;3.20;;;20.90;81.10;;;;;;5094827;28;20028;-73
2022/05/06 13:16:29;;;;;;;7.25;3.22;;;21.00;80.50;;;;;;5106871;28;20081;-73
2022/05/06 13:18:55;;;;;;;5.28;2.65;;;21.00;80.30;;;;;;5097007;28;20038;-72
2022/05/06 13:21:21;;;;;;;3.95;2.28;;;21.10;81.60;;;;;;5099683;28;20024;-73
2022/05/06 13:23:47;;;;;;;4.20;3.03;;;21.10;82.80;;;;;;5095351;28;20111;-73
2022/05/06 13:26:13;;;;;;;5.45;3.10;;;21.10;82.80;;;;;;5094999;28;20107;-71
2022/05/06 13:28:39;;;;;;;7.22;3.08;;;21.10;82.80;;;;;;5092651;28;20466;-72
2022/05/06 13:31:05;;;;;;;7.05;3.60;;;21.10;81.80;;;;;;5093011;28;20044;-73
2022/05/06 13:33:31;;;;;;;4.72;3.65;;;21.20;80.30;;;;;;5096463;28;20044;-72
2022/05/06 13:35:59;;;;;;;10.02;3.80;;;21.20;81.10;;;;;;5098731;28;20137;-72
2022/05/06 13:38:25;;;;;;;6.00;4.22;;;21.30;80.40;;;;;;5094901;28;20071;-72